Delta Virtual Airport Information Service

Prince George Airport

ICAO: CYXS Country: Canada
Latitude: 53.8894 Longitude: -122.678
Latest Arrival : ACA8201 (CYVR-CYXS) Latest Departure : JZA8208 (CYXS-CYVR)


WX CaptureLIVE
Data provided by noaa.gov | Fetched at 14:33:46

METAR : CYXS 291926Z AUTO 00000KT 9SM BKN017 OVC070 13/09 A3028 RMK SLP271

TAF : CYXS 291838Z 2919/3007 VRB03KT P6SM BKN012 TEMPO 2919/2922 SCT015 FM292200 04006KT P6SM SCT015 BKN080 RMK FCST BASED ON AUTO OBS. NXT FCST BY 300100Z


Runway Data for CYXS
Data provided by openaviationdata.com

Runway ID Mag Var Hdg Length Elevation Surface ILS Freq ILS Id ILS Slope
1 21 3770 ft 2266 ft Asphalt -- -- --
6 21 56° 6051 ft 2266 ft Asphalt -- -- --
15 21 147° 7389 ft 2266 ft Asphalt -- -- --
19 21 188° 3770 ft 2266 ft Asphalt -- -- --
24 21 236° 6051 ft 2266 ft Asphalt -- -- --
33 21 327° 7389 ft 2266 ft Asphalt -- -- --

Prince George Airport, Canada
Use only for reference purposes



Not for navigational purposes.